sensor_id;sensor_type;location;lat;lon;timestamp;pressure;altitude;pressure_sealevel;temperature;humidity
75945;BME280;64628;50.104;14.614;2023-05-29T00:01:56;98834.37;;;15.76;33.30
75945;BME280;64628;50.104;14.614;2023-05-29T00:04:21;98830.39;;;15.69;33.32
75945;BME280;64628;50.104;14.614;2023-05-29T00:06:59;98830.63;;;15.92;33.20
75945;BME280;64628;50.104;14.614;2023-05-29T00:09:10;98830.93;;;15.56;34.10
75945;BME280;64628;50.104;14.614;2023-05-29T00:11:45;98831.59;;;15.81;33.56
75945;BME280;64628;50.104;14.614;2023-05-29T00:14:11;98832.90;;;15.28;33.51
75945;BME280;64628;50.104;14.614;2023-05-29T00:16:30;98830.53;;;15.27;33.46
75945;BME280;64628;50.104;14.614;2023-05-29T00:18:55;98834.05;;;15.43;33.45
75945;BME280;64628;50.104;14.614;2023-05-29T00:21:21;98832.78;;;15.59;33.82
75945;BME280;64628;50.104;14.614;2023-05-29T00:23:43;98835.14;;;15.59;33.75
75945;BME280;64628;50.104;14.614;2023-05-29T00:26:16;98834.65;;;15.47;34.32
75945;BME280;64628;50.104;14.614;2023-05-29T00:28:33;98835.95;;;15.47;34.06
75945;BME280;64628;50.104;14.614;2023-05-29T00:31:03;98837.38;;;15.14;34.01
75945;BME280;64628;50.104;14.614;2023-05-29T00:33:27;98834.60;;;15.35;34.22
75945;BME280;64628;50.104;14.614;2023-05-29T00:35:46;98835.91;;;14.98;34.91
75945;BME280;64628;50.104;14.614;2023-05-29T00:38:13;98834.64;;;15.24;34.35
75945;BME280;64628;50.104;14.614;2023-05-29T00:43:09;98830.25;;;14.92;34.26
75945;BME280;64628;50.104;14.614;2023-05-29T00:45:36;98828.62;;;14.87;34.54
75945;BME280;64628;50.104;14.614;2023-05-29T00:47:57;98827.38;;;14.85;34.96
75945;BME280;64628;50.104;14.614;2023-05-29T00:50:35;98826.79;;;15.23;35.33
75945;BME280;64628;50.104;14.614;2023-05-29T00:57:40;98823.99;;;15.31;35.77
75945;BME280;64628;50.104;14.614;2023-05-29T01:02:36;98822.36;;;14.75;36.05
75945;BME280;64628;50.104;14.614;2023-05-29T01:04:53;98823.05;;;14.88;36.57
75945;BME280;64628;50.104;14.614;2023-05-29T01:07:19;98823.34;;;14.81;36.69
75945;BME280;64628;50.104;14.614;2023-05-29T01:12:16;98823.73;;;14.65;36.87
75945;BME280;64628;50.104;14.614;2023-05-29T01:14:41;98820.42;;;14.57;36.94
75945;BME280;64628;50.104;14.614;2023-05-29T01:17:09;98821.94;;;14.70;37.20
75945;BME280;64628;50.104;14.614;2023-05-29T01:24:32;98823.49;;;14.43;37.79
75945;BME280;64628;50.104;14.614;2023-05-29T01:26:50;98825.51;;;14.28;37.76
75945;BME280;64628;50.104;14.614;2023-05-29T01:29:13;98825.88;;;14.19;37.76
75945;BME280;64628;50.104;14.614;2023-05-29T01:34:04;98832.41;;;13.94;38.24
75945;BME280;64628;50.104;14.614;2023-05-29T01:36:27;98830.88;;;14.13;38.48
75945;BME280;64628;50.104;14.614;2023-05-29T01:38:48;98833.56;;;13.77;38.41
75945;BME280;64628;50.104;14.614;2023-05-29T01:43:38;98829.37;;;13.61;38.75
75945;BME280;64628;50.104;14.614;2023-05-29T01:46:14;98825.04;;;13.59;38.60
75945;BME280;64628;50.104;14.614;2023-05-29T01:48:28;98827.28;;;13.97;38.74
75945;BME280;64628;50.104;14.614;2023-05-29T01:50:52;98825.55;;;13.37;39.09
75945;BME280;64628;50.104;14.614;2023-05-29T01:53:23;98825.36;;;13.30;39.06
75945;BME280;64628;50.104;14.614;2023-05-29T01:55:45;98822.79;;;13.28;39.02
75945;BME280;64628;50.104;14.614;2023-05-29T01:58:13;98823.66;;;13.20;39.12
75945;BME280;64628;50.104;14.614;2023-05-29T02:00:44;98824.31;;;13.14;39.27
75945;BME280;64628;50.104;14.614;2023-05-29T02:03:01;98819.48;;;13.33;39.36
75945;BME280;64628;50.104;14.614;2023-05-29T02:05:24;98820.22;;;13.49;39.35
75945;BME280;64628;50.104;14.614;2023-05-29T02:07:51;98819.01;;;13.15;39.59
75945;BME280;64628;50.104;14.614;2023-05-29T02:10:15;98821.03;;;13.32;39.66
75945;BME280;64628;50.104;14.614;2023-05-29T02:12:39;98817.20;;;12.87;39.57
75945;BME280;64628;50.104;14.614;2023-05-29T02:15:07;98813.35;;;13.22;39.74
75945;BME280;64628;50.104;14.614;2023-05-29T02:17:29;98810.84;;;13.21;39.66
75945;BME280;64628;50.104;14.614;2023-05-29T02:19:57;98808.90;;;12.86;39.87
75945;BME280;64628;50.104;14.614;2023-05-29T02:22:30;98805.37;;;12.88;39.67
75945;BME280;64628;50.104;14.614;2023-05-29T02:27:12;98806.83;;;13.18;39.97
75945;BME280;64628;50.104;14.614;2023-05-29T02:29:37;98804.16;;;12.91;40.10
75945;BME280;64628;50.104;14.614;2023-05-29T02:32:15;98806.70;;;12.84;40.18
75945;BME280;64628;50.104;14.614;2023-05-29T02:34:29;98803.99;;;12.72;40.30
75945;BME280;64628;50.104;14.614;2023-05-29T02:36:57;98808.05;;;12.89;40.39
75945;BME280;64628;50.104;14.614;2023-05-29T02:39:28;98806.14;;;12.67;40.27
75945;BME280;64628;50.104;14.614;2023-05-29T02:41:48;98804.65;;;12.87;40.38
75945;BME280;64628;50.104;14.614;2023-05-29T02:44:20;98805.47;;;12.31;40.47
75945;BME280;64628;50.104;14.614;2023-05-29T02:51:40;98798.08;;;12.52;41.02
75945;BME280;64628;50.104;14.614;2023-05-29T02:53:56;98800.25;;;12.33;40.83
75945;BME280;64628;50.104;14.614;2023-05-29T02:56:19;98806.99;;;12.32;40.92
75945;BME280;64628;50.104;14.614;2023-05-29T02:58:52;98809.45;;;12.44;41.10
75945;BME280;64628;50.104;14.614;2023-05-29T03:01:13;98812.56;;;12.49;40.87
75945;BME280;64628;50.104;14.614;2023-05-29T03:03:34;98813.41;;;12.16;41.25
75945;BME280;64628;50.104;14.614;2023-05-29T03:06:04;98809.99;;;12.40;41.12
75945;BME280;64628;50.104;14.614;2023-05-29T03:08:32;98810.96;;;12.41;41.08
75945;BME280;64628;50.104;14.614;2023-05-29T03:10:58;98811.53;;;12.30;41.19
75945;BME280;64628;50.104;14.614;2023-05-29T03:13:23;98812.72;;;12.04;41.19
75945;BME280;64628;50.104;14.614;2023-05-29T03:15:45;98815.10;;;12.50;41.25
75945;BME280;64628;50.104;14.614;2023-05-29T03:18:19;98816.21;;;12.26;41.17
75945;BME280;64628;50.104;14.614;2023-05-29T03:20:40;98819.68;;;12.30;41.11
75945;BME280;64628;50.104;14.614;2023-05-29T03:22:58;98822.87;;;12.36;41.13
75945;BME280;64628;50.104;14.614;2023-05-29T03:28:02;98825.39;;;12.35;41.39
75945;BME280;64628;50.104;14.614;2023-05-29T03:30:16;98823.71;;;12.12;41.31
75945;BME280;64628;50.104;14.614;2023-05-29T03:32:38;98823.27;;;12.14;41.52
75945;BME280;64628;50.104;14.614;2023-05-29T03:35:10;98823.75;;;12.39;41.39
75945;BME280;64628;50.104;14.614;2023-05-29T03:37:38;98827.12;;;12.43;41.41
75945;BME280;64628;50.104;14.614;2023-05-29T03:40:02;98830.71;;;12.27;41.41
75945;BME280;64628;50.104;14.614;2023-05-29T03:44:51;98837.49;;;12.58;41.52
75945;BME280;64628;50.104;14.614;2023-05-29T03:47:10;98842.71;;;12.37;41.63
75945;BME280;64628;50.104;14.614;2023-05-29T03:52:06;98841.38;;;12.58;41.10
75945;BME280;64628;50.104;14.614;2023-05-29T03:54:27;98839.27;;;12.60;41.33
75945;BME280;64628;50.104;14.614;2023-05-29T03:56:53;98840.22;;;12.69;41.26
75945;BME280;64628;50.104;14.614;2023-05-29T03:59:18;98839.60;;;12.98;41.45
75945;BME280;64628;50.104;14.614;2023-05-29T04:01:52;98840.43;;;12.63;41.07
75945;BME280;64628;50.104;14.614;2023-05-29T04:04:17;98842.37;;;12.93;41.04
75945;BME280;64628;50.104;14.614;2023-05-29T04:06:36;98845.05;;;13.06;41.09
75945;BME280;64628;50.104;14.614;2023-05-29T04:11:29;98850.07;;;12.96;40.99
75945;BME280;64628;50.104;14.614;2023-05-29T04:13:51;98850.56;;;13.37;40.85
75945;BME280;64628;50.104;14.614;2023-05-29T04:16:30;98850.48;;;13.27;40.47
75945;BME280;64628;50.104;14.614;2023-05-29T04:21:19;98856.82;;;13.32;40.33
75945;BME280;64628;50.104;14.614;2023-05-29T04:23:36;98861.21;;;13.69;40.23
75945;BME280;64628;50.104;14.614;2023-05-29T04:26:03;98864.74;;;13.63;40.14
75945;BME280;64628;50.104;14.614;2023-05-29T04:30:53;98878.02;;;13.90;39.78
75945;BME280;64628;50.104;14.614;2023-05-29T04:33:26;98879.80;;;14.06;39.60
75945;BME280;64628;50.104;14.614;2023-05-29T04:35:47;98887.34;;;14.26;39.30
75945;BME280;64628;50.104;14.614;2023-05-29T04:38:19;98887.62;;;14.41;39.14
75945;BME280;64628;50.104;14.614;2023-05-29T04:43:03;98895.44;;;14.50;39.03
75945;BME280;64628;50.104;14.614;2023-05-29T04:47:54;98902.56;;;14.82;39.25
75945;BME280;64628;50.104;14.614;2023-05-29T04:50:16;98902.38;;;14.98;38.87
75945;BME280;64628;50.104;14.614;2023-05-29T04:52:49;98901.96;;;15.14;38.23
75945;BME280;64628;50.104;14.614;2023-05-29T04:55:02;98899.69;;;15.32;37.53
75945;BME280;64628;50.104;14.614;2023-05-29T04:59:58;98897.84;;;15.22;36.15
75945;BME280;64628;50.104;14.614;2023-05-29T05:02:24;98904.22;;;15.69;36.07
75945;BME280;64628;50.104;14.614;2023-05-29T05:04:57;98902.81;;;15.92;35.74
75945;BME280;64628;50.104;14.614;2023-05-29T05:07:11;98904.20;;;15.90;35.52
75945;BME280;64628;50.104;14.614;2023-05-29T05:12:05;98902.03;;;16.25;34.14
75945;BME280;64628;50.104;14.614;2023-05-29T05:16:54;98900.44;;;16.31;34.06
75945;BME280;64628;50.104;14.614;2023-05-29T05:21:59;98901.95;;;16.67;34.66
75945;BME280;64628;50.104;14.614;2023-05-29T05:24:07;98905.09;;;16.49;34.40
75945;BME280;64628;50.104;14.614;2023-05-29T05:26:39;98904.85;;;16.92;34.42
75945;BME280;64628;50.104;14.614;2023-05-29T05:28:59;98906.21;;;16.77;34.47
75945;BME280;64628;50.104;14.614;2023-05-29T05:31:24;98905.11;;;17.02;34.61
75945;BME280;64628;50.104;14.614;2023-05-29T05:33:53;98904.29;;;16.92;34.61
75945;BME280;64628;50.104;14.614;2023-05-29T05:38:38;98907.68;;;17.06;34.38
75945;BME280;64628;50.104;14.614;2023-05-29T05:41:06;98914.51;;;17.31;33.99
75945;BME280;64628;50.104;14.614;2023-05-29T05:43:33;98914.48;;;17.20;33.87
75945;BME280;64628;50.104;14.614;2023-05-29T05:46:05;98914.36;;;16.96;33.28
75945;BME280;64628;50.104;14.614;2023-05-29T05:48:29;98920.03;;;17.58;33.47
75945;BME280;64628;50.104;14.614;2023-05-29T05:53:14;98920.44;;;17.72;33.52
75945;BME280;64628;50.104;14.614;2023-05-29T05:58:12;98922.31;;;18.54;32.90
75945;BME280;64628;50.104;14.614;2023-05-29T06:00:28;98923.06;;;18.58;31.75
75945;BME280;64628;50.104;14.614;2023-05-29T06:02:55;98925.57;;;18.42;31.41
75945;BME280;64628;50.104;14.614;2023-05-29T06:05:20;98928.23;;;18.80;31.19
75945;BME280;64628;50.104;14.614;2023-05-29T06:07:54;98924.01;;;19.04;30.84
75945;BME280;64628;50.104;14.614;2023-05-29T06:10:14;98923.57;;;19.00;30.32
75945;BME280;64628;50.104;14.614;2023-05-29T06:17:26;98925.60;;;19.66;29.44
75945;BME280;64628;50.104;14.614;2023-05-29T06:19:51;98928.15;;;20.11;28.95
75945;BME280;64628;50.104;14.614;2023-05-29T06:27:17;98938.05;;;20.24;27.89
75945;BME280;64628;50.104;14.614;2023-05-29T06:29:42;98937.95;;;20.07;27.99
75945;BME280;64628;50.104;14.614;2023-05-29T06:32:13;98938.53;;;20.49;28.29
75945;BME280;64628;50.104;14.614;2023-05-29T06:39:23;98938.94;;;21.05;27.61
75945;BME280;64628;50.104;14.614;2023-05-29T06:46:42;98940.52;;;21.48;26.80
75945;BME280;64628;50.104;14.614;2023-05-29T06:51:29;98939.09;;;21.63;25.83
75945;BME280;64628;50.104;14.614;2023-05-29T06:56:21;98943.32;;;22.44;24.29
75945;BME280;64628;50.104;14.614;2023-05-29T07:01:10;98943.45;;;22.89;23.14
75945;BME280;64628;50.104;14.614;2023-05-29T07:06:11;98946.95;;;23.26;21.89
75945;BME280;64628;50.104;14.614;2023-05-29T07:15:55;98950.31;;;24.17;22.26
75945;BME280;64628;50.104;14.614;2023-05-29T07:20:25;98951.14;;;24.65;21.79
75945;BME280;64628;50.104;14.614;2023-05-29T07:27:49;98954.94;;;25.04;20.79
75945;BME280;64628;50.104;14.614;2023-05-29T07:35:08;98949.61;;;25.42;19.41
75945;BME280;64628;50.104;14.614;2023-05-29T07:39:48;98946.42;;;25.83;20.28
75945;BME280;64628;50.104;14.614;2023-05-29T07:42:20;98943.98;;;25.61;19.58
75945;BME280;64628;50.104;14.614;2023-05-29T07:54:26;98952.01;;;26.39;17.08
75945;BME280;64628;50.104;14.614;2023-05-29T07:56:54;98954.69;;;26.66;17.39
75945;BME280;64628;50.104;14.614;2023-05-29T07:59:13;98955.63;;;26.91;17.97
75945;BME280;64628;50.104;14.614;2023-05-29T08:01:40;98957.60;;;27.17;18.24
75945;BME280;64628;50.104;14.614;2023-05-29T08:04:13;98961.26;;;26.95;17.87
75945;BME280;64628;50.104;14.614;2023-05-29T08:06:31;98960.97;;;27.26;17.65
75945;BME280;64628;50.104;14.614;2023-05-29T08:08:59;98964.48;;;27.60;17.40
75945;BME280;64628;50.104;14.614;2023-05-29T08:16:26;98964.87;;;28.03;16.63
75945;BME280;64628;50.104;14.614;2023-05-29T08:18:39;98963.99;;;27.99;17.03
75945;BME280;64628;50.104;14.614;2023-05-29T08:23:33;98966.27;;;28.51;16.73
75945;BME280;64628;50.104;14.614;2023-05-29T08:26:06;98966.37;;;28.56;16.27
75945;BME280;64628;50.104;14.614;2023-05-29T08:28:22;98970.04;;;28.29;14.74
75945;BME280;64628;50.104;14.614;2023-05-29T08:30:49;98965.92;;;28.22;14.92
75945;BME280;64628;50.104;14.614;2023-05-29T08:33:17;98965.52;;;28.63;15.73
75945;BME280;64628;50.104;14.614;2023-05-29T08:35:46;98967.68;;;29.05;16.06
75945;BME280;64628;50.104;14.614;2023-05-29T08:40:34;98967.06;;;29.41;15.24
75945;BME280;64628;50.104;14.614;2023-05-29T08:43:06;98969.48;;;29.69;14.77
75945;BME280;64628;50.104;14.614;2023-05-29T08:47:58;98962.30;;;30.96;14.41
75945;BME280;64628;50.104;14.614;2023-05-29T08:50:23;98965.49;;;31.56;14.61
75945;BME280;64628;50.104;14.614;2023-05-29T08:52:41;98965.75;;;32.75;12.71
75945;BME280;64628;50.104;14.614;2023-05-29T08:55:14;98963.53;;;34.84;11.34
75945;BME280;64628;50.104;14.614;2023-05-29T08:57:30;98963.04;;;37.33;9.87
75945;BME280;64628;50.104;14.614;2023-05-29T09:02:27;98962.55;;;40.14;8.01
75945;BME280;64628;50.104;14.614;2023-05-29T09:04:57;98961.81;;;41.27;7.32
75945;BME280;64628;50.104;14.614;2023-05-29T09:14:34;98961.43;;;43.19;6.31
75945;BME280;64628;50.104;14.614;2023-05-29T09:17:04;98961.76;;;43.17;6.36
75945;BME280;64628;50.104;14.614;2023-05-29T09:19:29;98958.04;;;42.87;6.43
75945;BME280;64628;50.104;14.614;2023-05-29T09:24:22;98955.43;;;41.26;7.04
75945;BME280;64628;50.104;14.614;2023-05-29T09:31:31;98949.26;;;39.66;8.32
75945;BME280;64628;50.104;14.614;2023-05-29T09:36:31;98955.51;;;37.56;9.31
75945;BME280;64628;50.104;14.614;2023-05-29T09:41:25;98952.89;;;36.81;9.93
75945;BME280;64628;50.104;14.614;2023-05-29T09:43:43;98956.62;;;36.51;10.38
75945;BME280;64628;50.104;14.614;2023-05-29T09:46:09;98953.00;;;36.27;10.60
75945;BME280;64628;50.104;14.614;2023-05-29T09:50:54;98961.53;;;35.71;11.53
75945;BME280;64628;50.104;14.614;2023-05-29T09:53:21;98960.01;;;35.83;11.44
75945;BME280;64628;50.104;14.614;2023-05-29T09:58:14;98961.49;;;35.62;11.25
75945;BME280;64628;50.104;14.614;2023-05-29T10:00:42;98958.21;;;35.50;11.20
75945;BME280;64628;50.104;14.614;2023-05-29T10:03:03;98960.44;;;35.40;11.28
75945;BME280;64628;50.104;14.614;2023-05-29T10:05:40;98955.51;;;35.19;10.83
75945;BME280;64628;50.104;14.614;2023-05-29T10:10:26;98954.20;;;35.05;11.80
75945;BME280;64628;50.104;14.614;2023-05-29T10:12:48;98953.84;;;35.16;11.64
75945;BME280;64628;50.104;14.614;2023-05-29T10:15:15;98948.15;;;34.94;11.37
75945;BME280;64628;50.104;14.614;2023-05-29T10:20:05;98944.79;;;34.85;11.46
75945;BME280;64628;50.104;14.614;2023-05-29T10:22:39;98945.03;;;34.81;11.71
75945;BME280;64628;50.104;14.614;2023-05-29T10:24:49;98940.76;;;34.76;11.78
75945;BME280;64628;50.104;14.614;2023-05-29T10:27:21;98938.39;;;34.96;12.05
75945;BME280;64628;50.104;14.614;2023-05-29T10:29:49;98933.16;;;34.50;11.57
75945;BME280;64628;50.104;14.614;2023-05-29T10:32:19;98928.99;;;34.44;11.87
75945;BME280;64628;50.104;14.614;2023-05-29T10:34:39;98932.91;;;34.56;12.40
75945;BME280;64628;50.104;14.614;2023-05-29T10:39:35;98930.61;;;34.39;12.44
75945;BME280;64628;50.104;14.614;2023-05-29T10:42:02;98934.94;;;34.56;11.99
75945;BME280;64628;50.104;14.614;2023-05-29T10:51:36;98920.50;;;34.50;12.12
75945;BME280;64628;50.104;14.614;2023-05-29T10:54:02;98928.79;;;34.36;11.07
75945;BME280;64628;50.104;14.614;2023-05-29T10:56:31;98928.09;;;34.24;11.53
75945;BME280;64628;50.104;14.614;2023-05-29T10:58:58;98916.83;;;34.39;11.21
75945;BME280;64628;50.104;14.614;2023-05-29T11:01:14;98912.47;;;34.32;11.06
75945;BME280;64628;50.104;14.614;2023-05-29T11:03:39;98912.09;;;34.12;11.00
75945;BME280;64628;50.104;14.614;2023-05-29T11:06:06;98901.47;;;34.04;11.15
75945;BME280;64628;50.104;14.614;2023-05-29T11:08:34;98902.55;;;33.47;11.59
75945;BME280;64628;50.104;14.614;2023-05-29T11:16:08;98895.15;;;32.91;10.44
75945;BME280;64628;50.104;14.614;2023-05-29T11:18:17;98892.25;;;32.44;10.75
75945;BME280;64628;50.104;14.614;2023-05-29T11:23:16;98897.44;;;33.45;11.09
75945;BME280;64628;50.104;14.614;2023-05-29T11:25:39;98893.24;;;33.01;11.27
75945;BME280;64628;50.104;14.614;2023-05-29T11:28:13;98897.99;;;32.91;11.27
75945;BME280;64628;50.104;14.614;2023-05-29T11:30:41;98893.71;;;32.96;11.14
75945;BME280;64628;50.104;14.614;2023-05-29T11:32:52;98898.97;;;32.83;11.20
75945;BME280;64628;50.104;14.614;2023-05-29T11:35:22;98900.85;;;32.71;11.95
75945;BME280;64628;50.104;14.614;2023-05-29T11:49:50;98891.09;;;33.06;11.55
75945;BME280;64628;50.104;14.614;2023-05-29T11:52:21;98895.40;;;32.86;11.93
75945;BME280;64628;50.104;14.614;2023-05-29T11:57:10;98895.94;;;33.15;11.48
75945;BME280;64628;50.104;14.614;2023-05-29T11:59:30;98893.01;;;33.29;11.37
75945;BME280;64628;50.104;14.614;2023-05-29T12:02:01;98889.70;;;33.71;11.62
75945;BME280;64628;50.104;14.614;2023-05-29T12:04:32;98887.97;;;33.53;12.20
75945;BME280;64628;50.104;14.614;2023-05-29T12:06:56;98891.56;;;33.71;12.00
75945;BME280;64628;50.104;14.614;2023-05-29T12:09:25;98894.88;;;33.62;11.60
75945;BME280;64628;50.104;14.614;2023-05-29T12:11:39;98893.46;;;33.54;11.22
75945;BME280;64628;50.104;14.614;2023-05-29T12:14:12;98890.39;;;33.74;11.47
75945;BME280;64628;50.104;14.614;2023-05-29T12:16:32;98888.05;;;33.25;12.12
75945;BME280;64628;50.104;14.614;2023-05-29T12:24:03;98880.48;;;33.76;11.44
75945;BME280;64628;50.104;14.614;2023-05-29T12:26:22;98875.72;;;33.72;11.93
75945;BME280;64628;50.104;14.614;2023-05-29T12:33:40;98868.48;;;33.82;11.08
75945;BME280;64628;50.104;14.614;2023-05-29T12:36:02;98869.68;;;33.47;11.03
75945;BME280;64628;50.104;14.614;2023-05-29T12:38:28;98865.97;;;33.76;11.15
75945;BME280;64628;50.104;14.614;2023-05-29T12:40:55;98868.87;;;33.40;12.65
75945;BME280;64628;50.104;14.614;2023-05-29T12:45:53;98867.99;;;33.54;12.33
75945;BME280;64628;50.104;14.614;2023-05-29T12:48:11;98869.88;;;33.34;11.80
75945;BME280;64628;50.104;14.614;2023-05-29T12:53:08;98868.97;;;33.55;12.34
75945;BME280;64628;50.104;14.614;2023-05-29T12:55:27;98864.56;;;33.56;12.73
75945;BME280;64628;50.104;14.614;2023-05-29T12:57:58;98860.83;;;33.75;12.02
75945;BME280;64628;50.104;14.614;2023-05-29T13:00:26;98859.38;;;33.61;12.21
75945;BME280;64628;50.104;14.614;2023-05-29T13:02:51;98857.00;;;33.03;11.76
75945;BME280;64628;50.104;14.614;2023-05-29T13:05:07;98852.64;;;33.54;11.92
75945;BME280;64628;50.104;14.614;2023-05-29T13:07:37;98855.17;;;33.44;12.45
75945;BME280;64628;50.104;14.614;2023-05-29T13:09:58;98851.76;;;33.46;12.52
75945;BME280;64628;50.104;14.614;2023-05-29T13:14:54;98855.71;;;33.26;12.19
75945;BME280;64628;50.104;14.614;2023-05-29T13:17:09;98847.69;;;33.32;12.13
75945;BME280;64628;50.104;14.614;2023-05-29T13:27:04;98832.97;;;33.10;10.79
75945;BME280;64628;50.104;14.614;2023-05-29T13:29:34;98835.81;;;33.43;11.21
75945;BME280;64628;50.104;14.614;2023-05-29T13:39:14;98834.43;;;33.66;11.77
75945;BME280;64628;50.104;14.614;2023-05-29T13:41:41;98831.10;;;33.31;10.88
75945;BME280;64628;50.104;14.614;2023-05-29T13:43:55;98826.59;;;32.94;11.99
75945;BME280;64628;50.104;14.614;2023-05-29T13:48:58;98820.10;;;32.92;11.95
75945;BME280;64628;50.104;14.614;2023-05-29T14:15:32;98804.92;;;32.79;11.91
75945;BME280;64628;50.104;14.614;2023-05-29T14:18:03;98803.10;;;32.80;12.08
75945;BME280;64628;50.104;14.614;2023-05-29T14:52:01;98787.39;;;31.20;14.25
75945;BME280;64628;50.104;14.614;2023-05-29T14:54:13;98786.24;;;30.85;14.19
75945;BME280;64628;50.104;14.614;2023-05-29T14:56:45;98784.69;;;30.41;14.59
75945;BME280;64628;50.104;14.614;2023-05-29T14:59:15;98781.38;;;30.30;14.13
75945;BME280;64628;50.104;14.614;2023-05-29T15:01:42;98780.32;;;30.04;15.09
75945;BME280;64628;50.104;14.614;2023-05-29T15:04:12;98783.20;;;29.84;14.82
75945;BME280;64628;50.104;14.614;2023-05-29T15:06:28;98780.70;;;29.84;15.24
75945;BME280;64628;50.104;14.614;2023-05-29T15:30:39;98773.24;;;30.43;14.97
75945;BME280;64628;50.104;14.614;2023-05-29T15:33:04;98774.12;;;30.40;14.90
75945;BME280;64628;50.104;14.614;2023-05-29T15:35:30;98772.94;;;30.62;14.63
75945;BME280;64628;50.104;14.614;2023-05-29T15:37:56;98774.20;;;30.47;14.77
75945;BME280;64628;50.104;14.614;2023-05-29T15:40:21;98771.23;;;30.49;14.28
75945;BME280;64628;50.104;14.614;2023-05-29T15:42:47;98765.25;;;30.22;14.30
75945;BME280;64628;50.104;14.614;2023-05-29T15:45:13;98769.51;;;29.98;14.22
75945;BME280;64628;50.104;14.614;2023-05-29T15:47:38;98772.71;;;29.93;15.32
75945;BME280;64628;50.104;14.614;2023-05-29T15:50:05;98765.26;;;30.03;15.11
75945;BME280;64628;50.104;14.614;2023-05-29T15:52:30;98767.04;;;29.81;15.17
75945;BME280;64628;50.104;14.614;2023-05-29T15:54:56;98766.04;;;29.84;14.85
75945;BME280;64628;50.104;14.614;2023-05-29T16:09:30;98775.86;;;29.38;16.29
75945;BME280;64628;50.104;14.614;2023-05-29T16:11:56;98778.99;;;29.24;16.76
75945;BME280;64628;50.104;14.614;2023-05-29T16:14:21;98779.59;;;29.07;18.43
75945;BME280;64628;50.104;14.614;2023-05-29T16:16:47;98783.47;;;29.19;17.65
75945;BME280;64628;50.104;14.614;2023-05-29T16:19:13;98786.09;;;28.77;16.81
75945;BME280;64628;50.104;14.614;2023-05-29T16:21:38;98782.95;;;28.68;16.80
75945;BME280;64628;50.104;14.614;2023-05-29T16:24:05;98788.53;;;28.96;16.40
75945;BME280;64628;50.104;14.614;2023-05-29T16:26:30;98787.02;;;28.06;16.23
75945;BME280;64628;50.104;14.614;2023-05-29T16:28:58;98787.95;;;28.16;16.67
75945;BME280;64628;50.104;14.614;2023-05-29T16:31:22;98786.18;;;28.08;16.10
75945;BME280;64628;50.104;14.614;2023-05-29T16:33:47;98779.55;;;27.98;16.56
75945;BME280;64628;50.104;14.614;2023-05-29T16:36:13;98781.96;;;28.03;16.69
75945;BME280;64628;50.104;14.614;2023-05-29T16:38:39;98780.37;;;27.94;17.96
75945;BME280;64628;50.104;14.614;2023-05-29T16:41:04;98778.43;;;27.75;17.23
75945;BME280;64628;50.104;14.614;2023-05-29T16:43:30;98778.48;;;27.87;17.43
75945;BME280;64628;50.104;14.614;2023-05-29T16:45:56;98780.77;;;27.75;17.24
75945;BME280;64628;50.104;14.614;2023-05-29T16:48:22;98779.65;;;27.91;17.23
75945;BME280;64628;50.104;14.614;2023-05-29T16:53:14;98779.71;;;27.90;17.29
75945;BME280;64628;50.104;14.614;2023-05-29T16:58:04;98778.75;;;28.21;17.04
75945;BME280;64628;50.104;14.614;2023-05-29T17:00:30;98780.80;;;27.76;17.13
75945;BME280;64628;50.104;14.614;2023-05-29T17:02:56;98778.83;;;27.68;17.03
75945;BME280;64628;50.104;14.614;2023-05-29T17:05:22;98782.04;;;27.70;17.61
75945;BME280;64628;50.104;14.614;2023-05-29T17:07:47;98782.13;;;27.30;17.50
75945;BME280;64628;50.104;14.614;2023-05-29T17:10:14;98782.19;;;27.46;17.88
75945;BME280;64628;50.104;14.614;2023-05-29T17:12:38;98784.37;;;27.43;17.67
75945;BME280;64628;50.104;14.614;2023-05-29T17:15:05;98784.37;;;27.35;17.89
75945;BME280;64628;50.104;14.614;2023-05-29T17:17:29;98786.66;;;27.22;18.39
75945;BME280;64628;50.104;14.614;2023-05-29T17:19:54;98790.64;;;27.17;18.48
75945;BME280;64628;50.104;14.614;2023-05-29T17:22:20;98789.76;;;27.08;17.89
75945;BME280;64628;50.104;14.614;2023-05-29T17:24:46;98793.24;;;27.09;17.97
75945;BME280;64628;50.104;14.614;2023-05-29T17:27:13;98792.57;;;26.81;17.94
75945;BME280;64628;50.104;14.614;2023-05-29T17:29:38;98791.87;;;26.67;18.11
75945;BME280;64628;50.104;14.614;2023-05-29T17:32:04;98791.50;;;27.15;18.00
75945;BME280;64628;50.104;14.614;2023-05-29T17:36:55;98793.88;;;26.22;18.51
75945;BME280;64628;50.104;14.614;2023-05-29T17:39:24;98794.34;;;26.69;18.88
75945;BME280;64628;50.104;14.614;2023-05-29T17:41:46;98792.79;;;26.73;19.05
75945;BME280;64628;50.104;14.614;2023-05-29T17:44:12;98796.95;;;26.32;19.10
75945;BME280;64628;50.104;14.614;2023-05-29T17:46:38;98795.13;;;26.20;19.07
75945;BME280;64628;50.104;14.614;2023-05-29T17:49:10;98797.07;;;26.04;19.34
75945;BME280;64628;50.104;14.614;2023-05-29T17:51:34;98800.37;;;25.87;19.35
75945;BME280;64628;50.104;14.614;2023-05-29T17:53:55;98800.72;;;26.21;19.56
75945;BME280;64628;50.104;14.614;2023-05-29T17:56:22;98804.54;;;26.04;19.67
75945;BME280;64628;50.104;14.614;2023-05-29T17:58:46;98804.53;;;26.39;19.48
75945;BME280;64628;50.104;14.614;2023-05-29T18:01:23;98802.10;;;25.71;19.39
75945;BME280;64628;50.104;14.614;2023-05-29T18:25:33;98825.29;;;24.40;22.25
75945;BME280;64628;50.104;14.614;2023-05-29T18:28:11;98827.75;;;24.80;21.84
75945;BME280;64628;50.104;14.614;2023-05-29T18:30:24;98831.03;;;24.93;22.05
75945;BME280;64628;50.104;14.614;2023-05-29T18:32:54;98834.12;;;24.50;22.64
75945;BME280;64628;50.104;14.614;2023-05-29T18:35:16;98836.82;;;24.14;22.77